createdAt,value
2022-12-25T00:00:05.766Z,7.93
2022-12-25T00:01:37.892Z,7.95
2022-12-25T00:03:10.120Z,7.94
2022-12-25T00:04:42.311Z,7.94
2022-12-25T00:06:14.751Z,7.91
2022-12-25T00:07:46.851Z,7.92
2022-12-25T00:09:19.006Z,7.92
2022-12-25T00:11:07.392Z,7.92
2022-12-25T00:12:39.592Z,7.92
2022-12-25T00:14:11.793Z,7.93
2022-12-25T00:15:43.896Z,7.93
2022-12-25T00:17:16.283Z,7.93
2022-12-25T00:18:48.762Z,7.94
2022-12-25T00:20:20.978Z,7.96
2022-12-25T00:21:53.019Z,7.98
2022-12-25T00:23:25.391Z,8.00
2022-12-25T00:24:57.441Z,8.01
2022-12-25T00:26:29.587Z,8.01
2022-12-25T00:28:01.634Z,8.03
2022-12-25T00:29:33.833Z,8.05
2022-12-25T00:31:10.768Z,8.06
2022-12-25T00:32:43.024Z,8.08
2022-12-25T00:34:15.091Z,8.09
2022-12-25T00:36:00.884Z,8.10
2022-12-25T00:37:33.042Z,8.12
2022-12-25T00:39:05.283Z,8.13
2022-12-25T00:40:44.302Z,8.16
2022-12-25T00:42:19.309Z,8.15
2022-12-25T00:43:51.345Z,8.19
2022-12-25T00:45:23.453Z,8.19
2022-12-25T00:46:55.715Z,8.21
2022-12-25T00:48:29.458Z,8.24
2022-12-25T00:50:01.746Z,8.25
2022-12-25T00:51:35.595Z,8.26
2022-12-25T00:53:07.852Z,8.29
2022-12-25T00:54:39.981Z,8.29
2022-12-25T00:56:12.075Z,8.28
2022-12-25T00:57:44.210Z,8.31
2022-12-25T00:59:16.276Z,8.30
2022-12-25T01:00:49.910Z,8.30
2022-12-25T01:02:25.383Z,8.32
2022-12-25T01:03:57.833Z,8.33
2022-12-25T01:05:29.942Z,8.35
2022-12-25T01:07:02.039Z,8.34
2022-12-25T01:08:37.025Z,8.33
2022-12-25T01:10:22.869Z,8.36
2022-12-25T01:11:54.943Z,8.35
2022-12-25T01:13:31.075Z,8.37
2022-12-25T01:15:05.325Z,8.39
2022-12-25T01:16:37.894Z,8.40
2022-12-25T01:18:12.890Z,8.42
2022-12-25T01:19:45.277Z,8.43
2022-12-25T01:21:20.122Z,8.41
2022-12-25T01:22:52.342Z,8.41
2022-12-25T01:24:26.067Z,8.41
2022-12-25T01:26:08.113Z,8.38
2022-12-25T01:27:41.979Z,8.38
2022-12-25T01:29:14.137Z,8.39
2022-12-25T01:30:49.744Z,8.38
2022-12-25T01:32:21.782Z,8.38
2022-12-25T01:33:53.913Z,8.37
2022-12-25T01:35:26.035Z,8.37
2022-12-25T01:36:58.285Z,8.38
2022-12-25T01:38:30.460Z,8.38
2022-12-25T01:40:02.512Z,8.37
2022-12-25T01:41:35.642Z,8.37
2022-12-25T01:43:32.089Z,8.38
2022-12-25T01:45:25.762Z,8.36
2022-12-25T01:46:57.703Z,8.37
2022-12-25T01:48:34.320Z,8.37
2022-12-25T01:50:07.084Z,8.39
2022-12-25T01:51:41.678Z,8.38
2022-12-25T01:53:14.095Z,8.39
2022-12-25T01:54:55.016Z,8.41
2022-12-25T01:56:29.044Z,8.44
2022-12-25T01:58:01.234Z,8.46
2022-12-25T01:59:33.435Z,8.46
2022-12-25T02:01:05.663Z,8.48
2022-12-25T02:02:38.431Z,8.48
2022-12-25T02:04:17.820Z,8.50
2022-12-25T02:05:51.037Z,8.52
2022-12-25T02:07:26.538Z,8.53
2022-12-25T02:08:59.380Z,8.55
2022-12-25T02:10:31.473Z,8.57
2022-12-25T02:12:04.242Z,8.56
2022-12-25T02:13:36.396Z,8.56
2022-12-25T02:15:14.516Z,8.56
2022-12-25T02:16:57.292Z,8.55
2022-12-25T02:18:33.365Z,8.57
2022-12-25T02:20:47.199Z,8.57
2022-12-25T02:22:41.048Z,8.58
2022-12-25T02:24:40.072Z,8.58
2022-12-25T02:26:23.074Z,8.58
2022-12-25T02:28:10.610Z,8.60
2022-12-25T02:29:54.784Z,8.61
2022-12-25T02:31:45.795Z,8.60
2022-12-25T02:33:44.150Z,8.62
2022-12-25T02:35:31.239Z,8.60
2022-12-25T02:37:38.050Z,8.62
2022-12-25T02:39:39.989Z,8.59
2022-12-25T02:41:16.014Z,8.57
2022-12-25T02:43:10.955Z,8.56
2022-12-25T02:45:04.634Z,8.56
2022-12-25T02:46:55.421Z,8.54
2022-12-25T02:48:50.699Z,8.55
2022-12-25T02:50:43.174Z,8.53
2022-12-25T02:52:39.302Z,8.54
2022-12-25T02:54:32.982Z,8.55
2022-12-25T02:56:23.617Z,8.53
2022-12-25T02:58:18.392Z,8.53
2022-12-25T03:00:11.060Z,8.53
2022-12-25T03:02:03.581Z,8.53
2022-12-25T03:03:58.989Z,8.51
2022-12-25T03:05:51.757Z,8.48
2022-12-25T03:07:26.153Z,8.43
2022-12-25T03:09:21.702Z,8.38
2022-12-25T03:11:32.507Z,8.34
2022-12-25T03:13:11.777Z,8.31
2022-12-25T03:15:03.701Z,8.30
2022-12-25T03:16:54.157Z,8.28
2022-12-25T03:18:29.244Z,8.25
2022-12-25T03:20:19.907Z,8.24
2022-12-25T03:22:12.999Z,8.22
2022-12-25T03:24:09.604Z,8.20
2022-12-25T03:26:00.622Z,8.21
2022-12-25T03:27:34.709Z,8.21
2022-12-25T03:29:06.917Z,8.22
2022-12-25T03:31:06.997Z,8.22
2022-12-25T03:32:47.663Z,8.23
2022-12-25T03:34:54.040Z,8.25
2022-12-25T03:36:35.558Z,8.24
2022-12-25T03:38:41.811Z,8.24
2022-12-25T03:40:53.093Z,8.27
2022-12-25T03:42:49.552Z,8.29
2022-12-25T03:45:30.907Z,8.30
2022-12-25T03:47:35.610Z,8.33
2022-12-25T03:49:52.768Z,8.33
2022-12-25T03:51:49.731Z,8.34
2022-12-25T03:53:48.488Z,8.33
2022-12-25T03:55:40.304Z,8.30
2022-12-25T03:57:32.707Z,8.26
2022-12-25T03:59:24.221Z,8.24
2022-12-25T04:01:15.402Z,8.24
2022-12-25T04:03:06.061Z,8.24
2022-12-25T04:04:57.297Z,8.22
2022-12-25T04:06:47.766Z,8.23
2022-12-25T04:08:38.432Z,8.25
2022-12-25T04:10:29.085Z,8.24
2022-12-25T04:12:19.838Z,8.24
2022-12-25T04:14:10.569Z,8.24
2022-12-25T04:16:01.449Z,8.25
2022-12-25T04:17:52.097Z,8.24
2022-12-25T04:19:43.118Z,8.24
2022-12-25T04:21:33.631Z,8.25
2022-12-25T04:23:24.625Z,8.27
2022-12-25T04:25:15.231Z,8.29
2022-12-25T04:27:05.821Z,8.32
2022-12-25T04:28:56.445Z,8.34
2022-12-25T04:30:46.798Z,8.34
2022-12-25T04:32:37.461Z,8.37
2022-12-25T04:34:28.160Z,8.39
2022-12-25T04:36:09.375Z,8.41
2022-12-25T04:37:41.547Z,8.43
2022-12-25T04:39:13.763Z,8.45
2022-12-25T04:40:45.865Z,8.47
2022-12-25T04:42:18.079Z,8.48
2022-12-25T04:43:50.237Z,8.48
2022-12-25T04:45:22.721Z,8.51
2022-12-25T04:46:55.010Z,8.49
2022-12-25T04:48:27.804Z,8.49
2022-12-25T04:49:59.938Z,8.48
2022-12-25T04:51:32.080Z,8.46
2022-12-25T04:53:04.210Z,8.47
2022-12-25T04:54:38.343Z,8.47
2022-12-25T04:56:10.506Z,8.45
2022-12-25T04:57:42.615Z,8.44
2022-12-25T04:59:14.779Z,8.44
2022-12-25T05:00:46.873Z,8.45
2022-12-25T05:02:19.200Z,8.49
2022-12-25T05:03:51.863Z,8.51
2022-12-25T05:05:24.398Z,8.55
2022-12-25T05:06:56.476Z,8.55
2022-12-25T05:08:30.620Z,8.58
2022-12-25T05:10:02.718Z,8.58
2022-12-25T05:11:34.872Z,8.59
2022-12-25T05:13:06.967Z,8.58
2022-12-25T05:14:40.180Z,8.54
2022-12-25T05:16:15.970Z,8.49
2022-12-25T05:17:48.175Z,8.42
2022-12-25T05:19:20.299Z,8.36
2022-12-25T05:20:55.831Z,8.30
2022-12-25T05:22:27.958Z,8.29
2022-12-25T05:24:00.025Z,8.27
2022-12-25T05:25:32.216Z,8.26
2022-12-25T05:27:04.336Z,8.28
2022-12-25T05:28:36.905Z,8.26
2022-12-25T05:30:09.504Z,8.26
2022-12-25T05:31:41.716Z,8.26
2022-12-25T05:33:15.279Z,8.23
2022-12-25T05:34:47.350Z,8.20
2022-12-25T05:36:19.474Z,8.19
2022-12-25T05:37:51.660Z,8.16
2022-12-25T05:39:24.311Z,8.15
2022-12-25T05:40:56.416Z,8.13
2022-12-25T05:42:28.571Z,8.11
2022-12-25T05:44:00.688Z,8.07
2022-12-25T05:45:32.788Z,8.05
2022-12-25T05:47:05.144Z,8.03
2022-12-25T05:48:38.125Z,7.99
2022-12-25T05:50:11.225Z,7.98
2022-12-25T05:51:43.352Z,7.95
2022-12-25T05:53:16.062Z,7.92
2022-12-25T05:54:48.215Z,7.90
2022-12-25T05:56:20.412Z,7.83
2022-12-25T05:57:52.526Z,7.83
2022-12-25T05:59:24.659Z,7.79
2022-12-25T06:00:57.496Z,7.76
2022-12-25T06:02:29.601Z,7.70
2022-12-25T06:04:04.629Z,7.69
2022-12-25T06:05:40.523Z,7.65
2022-12-25T06:07:12.688Z,7.62
2022-12-25T06:08:45.010Z,7.57
2022-12-25T06:10:17.103Z,7.53
2022-12-25T06:11:49.180Z,7.46
2022-12-25T06:13:21.351Z,7.41
2022-12-25T06:14:53.422Z,7.37
2022-12-25T06:16:25.610Z,7.32
2022-12-25T06:18:00.403Z,7.27
2022-12-25T06:19:32.605Z,7.24
2022-12-25T06:21:13.010Z,7.17
2022-12-25T06:22:45.341Z,7.15
2022-12-25T06:24:21.282Z,7.11
2022-12-25T06:25:53.825Z,7.08
2022-12-25T06:27:26.119Z,7.06
2022-12-25T06:28:58.355Z,7.06
2022-12-25T06:30:30.508Z,7.04
2022-12-25T06:32:03.146Z,7.05
2022-12-25T06:33:35.598Z,7.03
2022-12-25T06:35:08.086Z,7.05
2022-12-25T06:36:40.198Z,7.04
2022-12-25T06:38:12.414Z,7.04
2022-12-25T06:39:44.500Z,7.02
2022-12-25T06:41:21.860Z,7.00
2022-12-25T06:42:53.979Z,6.95
2022-12-25T06:44:26.261Z,6.95
2022-12-25T06:46:03.281Z,6.92
2022-12-25T06:47:36.514Z,6.91
2022-12-25T06:49:10.627Z,6.87
2022-12-25T06:50:44.277Z,6.87
2022-12-25T06:52:16.476Z,6.83
2022-12-25T06:53:49.958Z,6.81
2022-12-25T06:55:22.111Z,6.81
2022-12-25T06:56:54.252Z,6.83
2022-12-25T06:58:26.306Z,6.79
2022-12-25T06:59:58.476Z,6.78
2022-12-25T07:01:52.859Z,6.79
2022-12-25T07:03:28.564Z,6.78
2022-12-25T07:05:02.049Z,6.79
2022-12-25T07:06:34.665Z,6.81
2022-12-25T07:08:06.745Z,6.85
2022-12-25T07:09:39.650Z,6.89
2022-12-25T07:11:12.184Z,6.93
2022-12-25T07:12:44.281Z,6.99
2022-12-25T07:14:24.236Z,7.03
2022-12-25T07:15:57.922Z,7.09
2022-12-25T07:17:30.041Z,7.14
2022-12-25T07:19:02.098Z,7.17
2022-12-25T07:20:34.159Z,7.21
2022-12-25T07:22:06.277Z,7.24
2022-12-25T07:23:38.626Z,7.26
2022-12-25T07:25:10.764Z,7.29
2022-12-25T07:26:42.856Z,7.30
2022-12-25T07:28:14.953Z,7.33
2022-12-25T07:29:47.012Z,7.34
2022-12-25T07:31:19.363Z,7.38
2022-12-25T07:32:51.765Z,7.39
2022-12-25T07:34:24.098Z,7.40
2022-12-25T07:35:56.219Z,7.40
2022-12-25T07:37:28.385Z,7.38
2022-12-25T07:39:00.552Z,7.33
2022-12-25T07:40:32.960Z,7.32
2022-12-25T07:42:05.114Z,7.29
2022-12-25T07:43:37.554Z,7.23
2022-12-25T07:45:10.108Z,7.20
2022-12-25T07:46:42.622Z,7.15
2022-12-25T07:48:16.857Z,7.10
2022-12-25T07:49:49.284Z,7.04
2022-12-25T07:51:21.573Z,7.01
2022-12-25T07:52:53.646Z,6.97
2022-12-25T07:54:26.390Z,6.95
2022-12-25T07:56:01.558Z,6.94
2022-12-25T07:57:34.528Z,6.91
2022-12-25T07:59:06.602Z,6.87
2022-12-25T08:00:38.718Z,6.87
2022-12-25T08:02:11.702Z,6.84
2022-12-25T08:03:44.618Z,6.84
2022-12-25T08:05:16.956Z,6.82
2022-12-25T08:06:49.066Z,6.79
2022-12-25T08:08:21.213Z,6.78
2022-12-25T08:09:53.259Z,6.75
2022-12-25T08:11:25.450Z,6.75
2022-12-25T08:12:57.588Z,6.73
2022-12-25T08:14:29.867Z,6.74
2022-12-25T08:16:03.905Z,6.77
2022-12-25T08:17:36.059Z,6.76
2022-12-25T08:19:09.068Z,6.77
2022-12-25T08:20:40.980Z,6.76
2022-12-25T08:22:13.075Z,6.78
2022-12-25T08:23:46.776Z,6.79
2022-12-25T08:25:18.947Z,6.81
2022-12-25T08:26:51.048Z,6.84
2022-12-25T08:28:23.115Z,6.87
2022-12-25T08:29:55.238Z,6.90
2022-12-25T08:31:29.664Z,6.93
2022-12-25T08:33:02.086Z,6.94
2022-12-25T08:34:34.210Z,6.95
2022-12-25T08:36:10.332Z,6.97
2022-12-25T08:37:42.464Z,7.01
2022-12-25T08:39:14.582Z,7.04
2022-12-25T08:40:46.690Z,7.07
2022-12-25T08:42:18.769Z,7.10
2022-12-25T08:43:50.874Z,7.13
2022-12-25T08:45:23.204Z,7.17
2022-12-25T08:46:55.358Z,7.19
2022-12-25T08:48:27.492Z,7.24
2022-12-25T08:49:59.609Z,7.25
2022-12-25T08:51:32.172Z,7.27
2022-12-25T08:53:04.222Z,7.30
2022-12-25T08:54:36.560Z,7.31
2022-12-25T08:56:08.824Z,7.35
2022-12-25T08:57:41.216Z,7.37
2022-12-25T08:59:13.356Z,7.38
2022-12-25T09:00:45.517Z,7.41
2022-12-25T09:02:18.710Z,7.43
2022-12-25T09:03:51.170Z,7.43
2022-12-25T09:05:23.357Z,7.45
2022-12-25T09:06:55.950Z,7.48
2022-12-25T09:08:28.017Z,7.50
2022-12-25T09:10:00.160Z,7.53
2022-12-25T09:11:32.356Z,7.57
2022-12-25T09:13:05.215Z,7.56
2022-12-25T09:14:37.309Z,7.59
2022-12-25T09:16:15.277Z,7.63
2022-12-25T09:17:47.623Z,7.66
2022-12-25T09:19:19.866Z,7.69
2022-12-25T09:21:04.268Z,7.70
2022-12-25T09:22:36.436Z,7.74
2022-12-25T09:24:08.771Z,7.74
2022-12-25T09:25:40.930Z,7.75
2022-12-25T09:27:13.130Z,7.78
2022-12-25T09:28:51.245Z,7.76
2022-12-25T09:30:24.262Z,7.80
2022-12-25T09:31:56.420Z,7.85
2022-12-25T09:33:28.618Z,7.87
2022-12-25T09:35:00.789Z,7.86
2022-12-25T09:36:32.927Z,7.89
2022-12-25T09:38:05.046Z,7.91
2022-12-25T09:39:42.163Z,7.93
2022-12-25T09:41:29.954Z,7.94
2022-12-25T09:43:03.820Z,7.94
2022-12-25T09:44:40.577Z,7.95
2022-12-25T09:46:17.313Z,7.98
2022-12-25T09:47:50.588Z,8.01
2022-12-25T09:49:37.310Z,8.01
2022-12-25T09:51:14.928Z,8.01
2022-12-25T09:53:12.802Z,8.03
2022-12-25T09:54:44.896Z,8.06
2022-12-25T09:56:26.490Z,8.07
2022-12-25T09:58:01.160Z,8.10
2022-12-25T09:59:33.274Z,8.11
2022-12-25T10:01:13.864Z,8.14
2022-12-25T10:03:07.775Z,8.15
2022-12-25T10:05:18.444Z,8.19
2022-12-25T10:07:16.069Z,8.26
2022-12-25T10:09:09.162Z,8.28
2022-12-25T10:10:52.685Z,8.30
2022-12-25T10:12:37.665Z,8.31
2022-12-25T10:14:29.965Z,8.31
2022-12-25T10:16:11.157Z,8.35
2022-12-25T10:17:50.059Z,8.37
2022-12-25T10:19:24.963Z,8.38
2022-12-25T10:21:01.404Z,8.39
2022-12-25T10:22:42.459Z,8.44
2022-12-25T10:24:30.892Z,8.47
2022-12-25T10:26:04.505Z,8.52
2022-12-25T10:27:42.943Z,8.54
2022-12-25T10:29:19.563Z,8.61
2022-12-25T10:30:52.602Z,8.63
2022-12-25T10:32:24.779Z,8.67
2022-12-25T10:33:57.566Z,8.71
2022-12-25T10:35:31.638Z,8.75
2022-12-25T10:37:03.784Z,8.80
2022-12-25T10:38:36.841Z,8.83
2022-12-25T10:40:24.124Z,8.87
2022-12-25T10:42:08.646Z,8.90
2022-12-25T10:43:49.051Z,8.93
2022-12-25T10:45:21.672Z,8.96
2022-12-25T10:46:58.158Z,9.02
2022-12-25T10:48:32.564Z,9.04
2022-12-25T10:50:20.227Z,9.07
2022-12-25T10:51:52.599Z,9.13
2022-12-25T10:53:27.381Z,9.15
2022-12-25T10:55:11.315Z,9.16
2022-12-25T10:56:53.539Z,9.19
2022-12-25T10:58:26.057Z,9.18
2022-12-25T10:59:58.198Z,9.20
2022-12-25T11:01:30.396Z,9.24
2022-12-25T11:03:02.653Z,9.24
2022-12-25T11:04:35.844Z,9.27
2022-12-25T11:06:21.021Z,9.30
2022-12-25T11:07:56.187Z,9.33
2022-12-25T11:09:28.901Z,9.38
2022-12-25T11:11:06.574Z,9.39
2022-12-25T11:12:43.367Z,9.37
2022-12-25T11:14:20.773Z,9.36
2022-12-25T11:16:15.237Z,9.32
2022-12-25T11:17:49.730Z,9.31
2022-12-25T11:19:24.352Z,9.29
2022-12-25T11:20:59.163Z,9.27
2022-12-25T11:22:31.360Z,9.26
2022-12-25T11:24:06.934Z,9.23
2022-12-25T11:25:38.966Z,9.25
2022-12-25T11:27:27.668Z,9.24
2022-12-25T11:28:59.866Z,9.23
2022-12-25T11:30:34.522Z,9.22
2022-12-25T11:32:16.531Z,9.21
2022-12-25T11:33:55.176Z,9.27
2022-12-25T11:35:32.284Z,9.30
2022-12-25T11:37:11.305Z,9.33
2022-12-25T11:38:43.559Z,9.38
2022-12-25T11:40:21.009Z,9.39
2022-12-25T11:42:17.666Z,9.44
2022-12-25T11:43:56.088Z,9.45
2022-12-25T11:45:36.407Z,9.48
2022-12-25T11:47:19.947Z,9.52
2022-12-25T11:49:00.661Z,9.59
2022-12-25T11:50:42.988Z,9.60
2022-12-25T11:52:17.214Z,9.63
2022-12-25T11:53:54.122Z,9.65
2022-12-25T11:55:46.319Z,9.67
2022-12-25T11:57:18.931Z,9.69
2022-12-25T11:59:18.245Z,9.73
2022-12-25T12:00:54.694Z,9.77
2022-12-25T12:02:35.690Z,9.80
2022-12-25T12:04:16.142Z,9.80
2022-12-25T12:05:51.786Z,9.83
2022-12-25T12:07:32.333Z,9.86
2022-12-25T12:09:14.879Z,9.84
2022-12-25T12:11:18.828Z,9.90
2022-12-25T12:13:11.466Z,9.97
2022-12-25T12:14:52.551Z,10.00
2022-12-25T12:16:24.953Z,10.00
2022-12-25T12:18:31.032Z,10.06
2022-12-25T12:20:34.115Z,10.12
2022-12-25T12:22:06.724Z,10.13
2022-12-25T12:23:48.486Z,10.15
2022-12-25T12:25:22.036Z,10.12
2022-12-25T12:27:03.908Z,10.09
2022-12-25T12:28:47.181Z,10.05
2022-12-25T12:30:24.431Z,10.04
2022-12-25T12:32:01.932Z,10.00
2022-12-25T12:33:40.436Z,9.99
2022-12-25T12:35:18.133Z,10.01
2022-12-25T12:36:53.288Z,9.97
2022-12-25T12:38:26.030Z,9.96
2022-12-25T12:39:58.620Z,9.95
2022-12-25T12:41:49.621Z,9.94
2022-12-25T12:43:52.700Z,9.96
2022-12-25T12:45:37.801Z,9.90
2022-12-25T12:47:29.388Z,9.82
2022-12-25T12:49:20.141Z,9.77
2022-12-25T12:51:06.205Z,9.76
2022-12-25T12:52:41.057Z,9.76
2022-12-25T12:54:23.287Z,9.73
2022-12-25T12:55:56.330Z,9.73
2022-12-25T12:57:32.906Z,9.70
2022-12-25T12:59:05.077Z,9.67
2022-12-25T13:00:49.091Z,9.63
2022-12-25T13:02:51.126Z,9.62
2022-12-25T13:04:52.147Z,9.61
2022-12-25T13:07:03.326Z,9.61
2022-12-25T13:09:03.931Z,9.58
2022-12-25T13:10:40.771Z,9.55
2022-12-25T13:12:15.069Z,9.51
2022-12-25T13:13:49.404Z,9.49
2022-12-25T13:15:24.954Z,9.48
2022-12-25T13:16:57.189Z,9.46
2022-12-25T13:18:31.726Z,9.44
2022-12-25T13:20:05.111Z,9.40
2022-12-25T13:21:37.288Z,9.36
2022-12-25T13:23:26.463Z,9.35
2022-12-25T13:25:05.166Z,9.32
2022-12-25T13:26:38.992Z,9.30
2022-12-25T13:28:14.903Z,9.25
2022-12-25T13:29:47.000Z,9.23
2022-12-25T13:31:22.571Z,9.19
2022-12-25T13:32:57.020Z,9.18
2022-12-25T13:34:32.825Z,9.16
2022-12-25T13:36:11.147Z,9.14
2022-12-25T13:37:44.491Z,9.08
2022-12-25T13:39:18.161Z,9.06
2022-12-25T13:41:14.257Z,9.04
2022-12-25T13:42:47.415Z,9.01
2022-12-25T13:44:29.983Z,8.98
2022-12-25T13:46:02.259Z,8.95
2022-12-25T13:47:37.120Z,8.92
2022-12-25T13:49:15.267Z,8.89
2022-12-25T13:50:56.721Z,8.85
2022-12-25T13:52:37.758Z,8.82
2022-12-25T13:54:13.106Z,8.84
2022-12-25T13:55:52.526Z,8.83
2022-12-25T13:57:29.137Z,8.81
2022-12-25T13:59:01.631Z,8.84
2022-12-25T14:00:39.591Z,8.85
2022-12-25T14:02:20.855Z,8.84
2022-12-25T14:03:54.710Z,8.83
2022-12-25T14:05:39.820Z,8.87
2022-12-25T14:07:20.715Z,8.90
2022-12-25T14:08:54.768Z,8.96
2022-12-25T14:10:34.715Z,9.02
2022-12-25T14:12:08.600Z,9.08
2022-12-25T14:13:44.394Z,9.11
2022-12-25T14:15:20.955Z,9.15
2022-12-25T14:16:56.346Z,9.20
2022-12-25T14:18:30.015Z,9.23
2022-12-25T14:20:07.921Z,9.26
2022-12-25T14:21:49.318Z,9.26
2022-12-25T14:23:21.593Z,9.31
2022-12-25T14:24:54.060Z,9.30
2022-12-25T14:26:31.907Z,9.32
2022-12-25T14:28:09.139Z,9.34
2022-12-25T14:29:44.762Z,9.33
2022-12-25T14:31:17.197Z,9.33
2022-12-25T14:32:53.553Z,9.33
2022-12-25T14:34:27.583Z,9.34
2022-12-25T14:35:59.994Z,9.31
2022-12-25T14:37:34.341Z,9.35
2022-12-25T14:39:21.243Z,9.34
2022-12-25T14:41:07.612Z,9.30
2022-12-25T14:42:39.758Z,9.31
2022-12-25T14:44:32.136Z,9.29
2022-12-25T14:46:08.150Z,9.24
2022-12-25T14:47:53.567Z,9.26
2022-12-25T14:49:25.888Z,9.22
2022-12-25T14:51:08.005Z,9.20
2022-12-25T14:52:44.560Z,9.16
2022-12-25T14:54:20.341Z,9.17
2022-12-25T14:55:54.122Z,9.14
2022-12-25T14:57:33.998Z,9.13
2022-12-25T14:59:09.627Z,9.10
2022-12-25T15:00:42.543Z,9.11
2022-12-25T15:02:18.321Z,9.10
2022-12-25T15:03:50.881Z,9.09
2022-12-25T15:05:27.208Z,9.08
2022-12-25T15:07:07.042Z,9.07
2022-12-25T15:08:40.259Z,9.05
2022-12-25T15:10:57.604Z,9.05
2022-12-25T15:12:06.224Z,9.06
2022-12-25T15:13:38.355Z,9.06
2022-12-25T15:15:10.653Z,9.09
2022-12-25T15:16:46.043Z,9.09
2022-12-25T15:18:20.231Z,9.08
2022-12-25T15:19:54.615Z,9.04
2022-12-25T15:21:30.159Z,9.08
2022-12-25T15:23:18.835Z,9.07
2022-12-25T15:24:54.711Z,9.05
2022-12-25T15:26:32.321Z,9.09
2022-12-25T15:28:10.879Z,9.05
2022-12-25T15:30:09.156Z,9.06
2022-12-25T15:31:39.893Z,9.05
2022-12-25T15:33:15.646Z,9.05
2022-12-25T15:34:49.975Z,9.05
2022-12-25T15:36:22.842Z,9.07
2022-12-25T15:37:54.928Z,9.08
2022-12-25T15:39:27.002Z,9.10
2022-12-25T15:40:59.434Z,9.09
2022-12-25T15:42:31.453Z,9.08
2022-12-25T15:44:05.443Z,9.07
2022-12-25T15:45:38.306Z,9.04
2022-12-25T15:47:11.059Z,9.06
2022-12-25T15:48:43.321Z,9.06
2022-12-25T15:50:17.144Z,9.04
2022-12-25T15:51:49.262Z,9.06
2022-12-25T15:53:21.415Z,9.07
2022-12-25T15:54:54.239Z,9.05
2022-12-25T15:56:26.540Z,9.05
2022-12-25T15:57:58.688Z,9.05
2022-12-25T15:59:31.272Z,9.07
2022-12-25T16:01:03.585Z,9.03
2022-12-25T16:02:35.809Z,9.00
2022-12-25T16:04:08.040Z,8.99
2022-12-25T16:05:40.217Z,8.97
2022-12-25T16:07:21.728Z,8.93
2022-12-25T16:08:53.845Z,8.95
2022-12-25T16:10:26.027Z,8.92
2022-12-25T16:11:58.203Z,8.96
2022-12-25T16:13:30.417Z,8.93
2022-12-25T16:15:02.646Z,8.89
2022-12-25T16:16:35.555Z,8.90
2022-12-25T16:18:10.342Z,8.91
2022-12-25T16:19:44.850Z,8.91
2022-12-25T16:21:19.997Z,8.92
2022-12-25T16:22:52.087Z,8.93
2022-12-25T16:24:24.324Z,8.93
2022-12-25T16:25:56.431Z,8.93
2022-12-25T16:27:28.554Z,8.93
2022-12-25T16:29:06.761Z,8.95
2022-12-25T16:30:40.368Z,8.97
2022-12-25T16:32:13.703Z,8.97
2022-12-25T16:33:45.843Z,8.98
2022-12-25T16:35:17.997Z,9.00
2022-12-25T16:36:50.093Z,9.02
2022-12-25T16:38:22.291Z,9.03
2022-12-25T16:39:54.511Z,9.03
2022-12-25T16:41:26.744Z,9.03
2022-12-25T16:42:59.205Z,9.03
2022-12-25T16:44:31.361Z,9.05
2022-12-25T16:46:10.291Z,9.05
2022-12-25T16:47:42.419Z,9.05
2022-12-25T16:49:14.931Z,9.04
2022-12-25T16:50:47.116Z,9.03
2022-12-25T16:52:19.253Z,9.01
2022-12-25T16:53:51.336Z,9.02
2022-12-25T16:55:29.456Z,9.02
2022-12-25T16:57:02.289Z,9.02
2022-12-25T16:58:34.963Z,9.01
2022-12-25T17:00:08.751Z,9.00
2022-12-25T17:01:43.441Z,9.02
2022-12-25T17:03:15.771Z,9.00
2022-12-25T17:04:48.454Z,9.03
2022-12-25T17:06:28.352Z,9.02
2022-12-25T17:08:01.184Z,9.01
2022-12-25T17:09:35.432Z,8.98
2022-12-25T17:11:11.809Z,8.97
2022-12-25T17:12:45.714Z,8.98
2022-12-25T17:14:17.678Z,8.98
2022-12-25T17:15:50.779Z,8.97
2022-12-25T17:17:23.285Z,8.98
2022-12-25T17:19:04.407Z,8.96
2022-12-25T17:20:38.129Z,8.97
2022-12-25T17:22:10.487Z,8.98
2022-12-25T17:23:45.072Z,8.99
2022-12-25T17:25:17.299Z,8.99
2022-12-25T17:26:49.455Z,8.99
2022-12-25T17:28:21.666Z,8.95
2022-12-25T17:29:53.821Z,8.97
2022-12-25T17:31:26.018Z,8.97
2022-12-25T17:32:58.229Z,8.96
2022-12-25T17:34:30.302Z,8.96
2022-12-25T17:36:04.289Z,8.96
2022-12-25T17:37:36.381Z,8.94
2022-12-25T17:39:10.484Z,8.95
2022-12-25T17:40:42.853Z,8.93
2022-12-25T17:42:15.022Z,8.97
2022-12-25T17:43:48.115Z,8.98
2022-12-25T17:45:20.379Z,8.96
2022-12-25T17:46:52.585Z,8.96
2022-12-25T17:48:24.953Z,8.94
2022-12-25T17:49:57.176Z,8.93
2022-12-25T17:51:30.868Z,8.90
2022-12-25T17:53:05.248Z,8.88
2022-12-25T17:54:40.542Z,8.84
2022-12-25T17:56:14.149Z,8.80
2022-12-25T17:57:46.400Z,8.78
2022-12-25T17:59:18.978Z,8.72
2022-12-25T18:00:51.391Z,8.70
2022-12-25T18:02:23.724Z,8.69
2022-12-25T18:03:56.365Z,8.66
2022-12-25T18:05:28.632Z,8.63
2022-12-25T18:07:00.762Z,8.65
2022-12-25T18:08:38.971Z,8.65
2022-12-25T18:10:11.973Z,8.68
2022-12-25T18:11:44.093Z,8.70
2022-12-25T18:13:16.341Z,8.71
2022-12-25T18:14:48.516Z,8.71
2022-12-25T18:16:23.204Z,8.75
2022-12-25T18:17:55.354Z,8.74
2022-12-25T18:19:27.524Z,8.76
2022-12-25T18:21:00.049Z,8.76
2022-12-25T18:22:34.257Z,8.77
2022-12-25T18:24:07.469Z,8.81
2022-12-25T18:25:41.609Z,8.81
2022-12-25T18:27:14.156Z,8.78
2022-12-25T18:28:47.514Z,8.78
2022-12-25T18:30:20.111Z,8.80
2022-12-25T18:31:52.366Z,8.80
2022-12-25T18:33:24.979Z,8.84
2022-12-25T18:34:57.170Z,8.86
2022-12-25T18:36:30.425Z,8.85
2022-12-25T18:38:02.570Z,8.85
2022-12-25T18:39:34.741Z,8.86
2022-12-25T18:41:08.123Z,8.87
2022-12-25T18:42:40.339Z,8.86
2022-12-25T18:44:12.512Z,8.83
2022-12-25T18:45:44.698Z,8.82
2022-12-25T18:47:16.893Z,8.83
2022-12-25T18:48:48.974Z,8.88
2022-12-25T18:50:21.132Z,8.85
2022-12-25T18:51:53.296Z,8.84
2022-12-25T18:53:45.557Z,8.84
2022-12-25T18:55:17.629Z,8.82
2022-12-25T18:56:53.560Z,8.79
2022-12-25T18:58:26.409Z,8.80
2022-12-25T19:00:03.126Z,8.82
2022-12-25T19:01:37.090Z,8.79
2022-12-25T19:03:09.544Z,8.82
2022-12-25T19:04:43.609Z,8.76
2022-12-25T19:06:21.360Z,8.72
2022-12-25T19:07:53.627Z,8.70
2022-12-25T19:09:25.822Z,8.65
2022-12-25T19:10:57.961Z,8.62
2022-12-25T19:12:30.077Z,8.55
2022-12-25T19:14:02.187Z,8.50
2022-12-25T19:15:35.840Z,8.48
2022-12-25T19:17:10.595Z,8.46
2022-12-25T19:18:43.512Z,8.41
2022-12-25T19:20:15.761Z,8.40
2022-12-25T19:21:55.351Z,8.37
2022-12-25T19:23:27.483Z,8.36
2022-12-25T19:24:59.640Z,8.35
2022-12-25T19:26:31.780Z,8.29
2022-12-25T19:28:04.291Z,8.29
2022-12-25T19:29:36.414Z,8.26
2022-12-25T19:31:09.759Z,8.26
2022-12-25T19:32:43.300Z,8.22
2022-12-25T19:34:15.681Z,8.19
2022-12-25T19:35:49.048Z,8.16
2022-12-25T19:37:21.194Z,8.10
2022-12-25T19:38:53.826Z,8.07
2022-12-25T19:40:26.455Z,8.05
2022-12-25T19:41:58.565Z,8.00
2022-12-25T19:43:41.899Z,7.98
2022-12-25T19:45:13.872Z,7.93
2022-12-25T19:46:46.017Z,7.89
2022-12-25T19:48:18.097Z,7.86
2022-12-25T19:49:53.211Z,7.85
2022-12-25T19:51:28.216Z,7.78
2022-12-25T19:53:00.371Z,7.78
2022-12-25T19:54:32.530Z,7.76
2022-12-25T19:56:04.859Z,7.72
2022-12-25T19:57:36.963Z,7.69
2022-12-25T19:59:10.821Z,7.69
2022-12-25T20:00:43.027Z,7.63
2022-12-25T20:02:15.427Z,7.59
2022-12-25T20:03:49.400Z,7.55
2022-12-25T20:05:21.585Z,7.56
2022-12-25T20:06:54.340Z,7.52
2022-12-25T20:08:26.612Z,7.50
2022-12-25T20:09:58.739Z,7.44
2022-12-25T20:11:32.502Z,7.37
2022-12-25T20:13:04.765Z,7.33
2022-12-25T20:14:37.301Z,7.26
2022-12-25T20:16:10.370Z,7.19
2022-12-25T20:17:42.697Z,7.19
2022-12-25T20:19:17.308Z,7.15
2022-12-25T20:20:49.481Z,7.15
2022-12-25T20:22:21.587Z,7.11
2022-12-25T20:23:54.319Z,7.09
2022-12-25T20:25:26.548Z,7.05
2022-12-25T20:26:59.382Z,7.03
2022-12-25T20:28:32.334Z,7.00
2022-12-25T20:30:04.984Z,6.98
2022-12-25T20:31:37.221Z,6.97
2022-12-25T20:33:10.213Z,6.97
2022-12-25T20:34:42.387Z,6.95
2022-12-25T20:36:15.218Z,6.94
2022-12-25T20:37:47.339Z,6.92
2022-12-25T20:39:19.600Z,6.91
2022-12-25T20:41:26.232Z,6.90
2022-12-25T20:42:53.932Z,6.87
2022-12-25T20:44:26.070Z,6.89
2022-12-25T20:45:58.897Z,6.91
2022-12-25T20:47:30.984Z,6.90
2022-12-25T20:49:03.458Z,6.93
2022-12-25T20:50:35.587Z,6.93
2022-12-25T20:52:07.909Z,6.98
2022-12-25T20:53:40.414Z,7.01
2022-12-25T20:55:14.234Z,7.05
2022-12-25T20:56:48.501Z,7.06
2022-12-25T20:58:20.631Z,7.10
2022-12-25T20:59:53.549Z,7.13
2022-12-25T21:01:26.469Z,7.16
2022-12-25T21:02:58.899Z,7.21
2022-12-25T21:04:31.218Z,7.23
2022-12-25T21:06:03.491Z,7.27
2022-12-25T21:07:35.755Z,7.30
2022-12-25T21:09:07.832Z,7.32
2022-12-25T21:10:40.022Z,7.37
2022-12-25T21:12:12.145Z,7.39
2022-12-25T21:13:46.226Z,7.42
2022-12-25T21:15:18.338Z,7.49
2022-12-25T21:16:50.979Z,7.50
2022-12-25T21:18:25.141Z,7.52
2022-12-25T21:19:57.350Z,7.54
2022-12-25T21:21:29.521Z,7.57
2022-12-25T21:23:01.685Z,7.56
2022-12-25T21:24:33.930Z,7.58
2022-12-25T21:26:21.437Z,7.60
2022-12-25T21:27:53.562Z,7.64